createdAt,value
2022-10-31T00:01:38.836Z,13.05
2022-10-31T00:04:08.968Z,12.27
2022-10-31T00:06:37.497Z,12.50
2022-10-31T00:09:07.469Z,13.15
2022-10-31T00:11:35.832Z,12.75
2022-10-31T00:14:04.639Z,13.40
2022-10-31T00:16:33.042Z,13.85
2022-10-31T00:19:04.171Z,13.55
2022-10-31T00:21:34.527Z,14.45
2022-10-31T00:24:03.451Z,14.13
2022-10-31T00:26:33.005Z,13.25
2022-10-31T00:29:02.571Z,12.88
2022-10-31T00:31:31.420Z,11.80
2022-10-31T00:34:00.586Z,11.10
2022-10-31T00:36:29.121Z,12.30
2022-10-31T00:39:01.209Z,12.90
2022-10-31T00:41:30.166Z,13.30
2022-10-31T00:43:58.740Z,12.68
2022-10-31T00:46:27.351Z,12.00
2022-10-31T00:48:55.802Z,12.15
2022-10-31T00:51:24.131Z,11.75
2022-10-31T00:53:52.688Z,14.98
2022-10-31T00:56:22.459Z,12.90
2022-10-31T00:58:50.777Z,13.27
2022-10-31T01:01:19.154Z,13.90
2022-10-31T01:03:47.486Z,14.05
2022-10-31T01:06:16.999Z,14.00
2022-10-31T01:08:45.625Z,11.63
2022-10-31T01:11:17.626Z,13.05
2022-10-31T01:13:48.843Z,12.75
2022-10-31T01:16:19.370Z,13.15
2022-10-31T01:18:48.769Z,13.75
2022-10-31T01:21:21.416Z,13.73
2022-10-31T01:23:51.319Z,14.98
2022-10-31T01:26:24.874Z,15.02
2022-10-31T01:28:58.203Z,17.13
2022-10-31T01:31:30.707Z,15.02
2022-10-31T01:34:00.379Z,14.70
2022-10-31T01:36:31.898Z,16.15
2022-10-31T01:39:04.821Z,16.83
2022-10-31T01:41:37.923Z,15.40
2022-10-31T01:44:58.858Z,15.85
2022-10-31T01:47:42.091Z,14.63
2022-10-31T01:50:30.256Z,15.18
2022-10-31T01:53:00.032Z,15.27
2022-10-31T01:55:34.028Z,13.38
2022-10-31T01:58:09.657Z,15.63
2022-10-31T02:00:42.416Z,16.20
2022-10-31T02:03:11.164Z,14.25
2022-10-31T02:05:40.649Z,14.27
2022-10-31T02:08:15.648Z,15.00
2022-10-31T02:10:45.968Z,13.88
2022-10-31T02:13:15.360Z,14.75
2022-10-31T02:15:49.223Z,17.85
2022-10-31T02:18:18.192Z,13.63
2022-10-31T02:21:00.995Z,13.48
2022-10-31T02:24:24.716Z,14.15
2022-10-31T02:27:11.743Z,12.88
2022-10-31T02:30:11.971Z,14.90
2022-10-31T02:33:07.454Z,14.15
2022-10-31T02:35:50.268Z,14.13
2022-10-31T02:38:40.879Z,14.43
2022-10-31T02:41:20.938Z,14.73
2022-10-31T02:44:04.341Z,14.68
2022-10-31T02:46:42.118Z,15.98
2022-10-31T02:49:24.309Z,16.52
2022-10-31T02:51:53.468Z,15.85
2022-10-31T02:54:26.542Z,15.63
2022-10-31T02:57:02.245Z,14.73
2022-10-31T02:59:36.628Z,13.95
2022-10-31T03:02:48.342Z,15.02
2022-10-31T03:05:53.748Z,15.70
2022-10-31T03:08:32.169Z,15.10
2022-10-31T03:11:03.770Z,14.70
2022-10-31T03:13:42.049Z,14.82
2022-10-31T03:16:18.290Z,14.77
2022-10-31T03:18:55.048Z,10.82
2022-10-31T03:21:32.601Z,14.65
2022-10-31T03:24:04.121Z,13.73
2022-10-31T03:26:34.006Z,13.25
2022-10-31T03:29:09.780Z,13.48
2022-10-31T03:31:47.707Z,14.30
2022-10-31T03:34:21.095Z,13.35
2022-10-31T03:36:55.985Z,13.52
2022-10-31T03:39:26.405Z,13.85
2022-10-31T03:42:02.201Z,14.48
2022-10-31T03:44:35.071Z,14.18
2022-10-31T03:47:05.029Z,15.57
2022-10-31T03:49:35.381Z,13.95
2022-10-31T03:52:16.175Z,14.73
2022-10-31T03:54:47.617Z,13.15
2022-10-31T03:57:26.650Z,12.27
2022-10-31T04:00:02.294Z,13.00
2022-10-31T04:02:36.839Z,11.32
2022-10-31T04:05:07.971Z,13.90
2022-10-31T04:07:44.051Z,13.43
2022-10-31T04:10:17.973Z,14.45
2022-10-31T04:12:54.500Z,14.32
2022-10-31T04:15:25.807Z,14.07
2022-10-31T04:18:00.165Z,14.48
2022-10-31T04:20:33.830Z,13.18
2022-10-31T04:23:07.210Z,16.83
2022-10-31T04:25:36.989Z,16.73
2022-10-31T04:28:05.625Z,14.75
2022-10-31T04:30:34.009Z,16.90
2022-10-31T04:33:02.613Z,16.35
2022-10-31T04:35:31.201Z,17.63
2022-10-31T04:37:59.539Z,16.42
2022-10-31T04:40:29.258Z,15.60
2022-10-31T04:42:57.636Z,14.45
2022-10-31T04:45:26.114Z,16.92
2022-10-31T04:47:54.452Z,15.48
2022-10-31T04:50:22.752Z,16.55
2022-10-31T04:52:51.048Z,17.05
2022-10-31T04:55:19.519Z,15.80
2022-10-31T04:57:51.487Z,16.63
2022-10-31T05:00:22.927Z,17.52
2022-10-31T05:02:53.176Z,15.50
2022-10-31T05:05:25.152Z,15.85
2022-10-31T05:07:54.691Z,15.55
2022-10-31T05:10:27.114Z,14.90
2022-10-31T05:13:00.062Z,15.18
2022-10-31T05:15:30.287Z,14.73
2022-10-31T05:17:59.517Z,15.02
2022-10-31T05:20:31.733Z,15.57
2022-10-31T05:23:01.137Z,14.93
2022-10-31T05:25:31.213Z,14.68
2022-10-31T05:28:01.130Z,15.40
2022-10-31T05:30:33.077Z,15.00
2022-10-31T05:33:02.656Z,15.30
2022-10-31T05:35:34.485Z,16.33
2022-10-31T05:38:03.121Z,16.85
2022-10-31T05:40:31.679Z,15.43
2022-10-31T05:43:01.793Z,15.00
2022-10-31T05:45:30.525Z,14.60
2022-10-31T05:48:01.306Z,14.68
2022-10-31T05:50:32.664Z,14.82
2022-10-31T05:53:03.273Z,14.27
2022-10-31T05:55:33.213Z,14.93
2022-10-31T05:58:03.151Z,15.25
2022-10-31T06:00:32.135Z,17.13
2022-10-31T06:03:01.274Z,18.38
2022-10-31T06:05:29.909Z,17.77
2022-10-31T06:07:59.086Z,18.40
2022-10-31T06:10:29.005Z,19.08
2022-10-31T06:12:57.238Z,16.33
2022-10-31T06:15:27.404Z,18.20
2022-10-31T06:18:04.735Z,19.35
2022-10-31T06:20:33.989Z,18.15
2022-10-31T06:23:03.158Z,17.70
2022-10-31T06:25:32.047Z,17.92
2022-10-31T06:28:00.561Z,17.40
2022-10-31T06:30:30.273Z,15.23
2022-10-31T06:33:05.285Z,17.80
2022-10-31T06:35:34.184Z,20.02
2022-10-31T06:38:03.154Z,19.20
2022-10-31T06:40:31.641Z,17.33
2022-10-31T06:43:01.126Z,18.98
2022-10-31T06:45:31.478Z,18.75
2022-10-31T06:50:48.455Z,20.50
2022-10-31T06:53:16.995Z,19.63
2022-10-31T06:55:45.941Z,19.73
2022-10-31T06:58:14.485Z,20.27
2022-10-31T07:00:44.307Z,20.75
2022-10-31T07:03:14.972Z,22.98
2022-10-31T07:05:43.617Z,21.63
2022-10-31T07:08:14.492Z,22.08
2022-10-31T07:10:45.034Z,21.10
2022-10-31T07:13:15.889Z,21.25
2022-10-31T07:15:46.731Z,21.35
2022-10-31T07:18:15.418Z,21.27
2022-10-31T07:20:44.026Z,19.80
2022-10-31T07:23:13.433Z,19.40
2022-10-31T07:25:42.599Z,18.98
2022-10-31T07:28:11.364Z,20.73
2022-10-31T07:30:40.605Z,19.52
2022-10-31T07:33:11.503Z,18.23
2022-10-31T07:35:39.966Z,17.05
2022-10-31T07:38:13.449Z,18.98
2022-10-31T07:40:42.275Z,18.15
2022-10-31T07:43:14.514Z,19.20
2022-10-31T07:45:43.432Z,16.70
2022-10-31T07:48:13.254Z,16.92
2022-10-31T07:50:41.584Z,15.82
2022-10-31T07:53:13.722Z,17.10
2022-10-31T07:55:43.205Z,15.88
2022-10-31T07:58:14.107Z,15.63
2022-10-31T08:00:45.045Z,15.95
2022-10-31T08:03:18.964Z,13.15
2022-10-31T08:05:48.413Z,11.98
2022-10-31T08:08:17.675Z,12.20
2022-10-31T08:10:46.267Z,12.15
2022-10-31T08:13:16.835Z,10.73
2022-10-31T08:15:45.612Z,10.55
2022-10-31T08:18:17.292Z,8.75
2022-10-31T08:20:46.420Z,9.85
2022-10-31T08:23:17.142Z,9.35
2022-10-31T08:25:47.956Z,7.18
2022-10-31T08:28:17.257Z,7.70
2022-10-31T08:30:46.921Z,7.13
2022-10-31T08:33:19.798Z,7.03
2022-10-31T08:35:48.711Z,6.47
2022-10-31T08:38:17.270Z,6.93
2022-10-31T08:40:45.686Z,6.10
2022-10-31T08:43:16.632Z,5.70
2022-10-31T08:45:46.437Z,5.50
2022-10-31T08:48:19.508Z,5.90
2022-10-31T08:50:48.731Z,5.60
2022-10-31T08:53:20.481Z,4.90
2022-10-31T08:55:49.895Z,6.07
2022-10-31T08:58:20.718Z,5.65
2022-10-31T09:00:51.973Z,5.65
2022-10-31T09:03:25.251Z,5.53
2022-10-31T09:06:18.012Z,4.88
2022-10-31T09:20:16.235Z,4.10
2022-10-31T09:31:42.209Z,4.13
2022-10-31T09:41:58.161Z,4.20
2022-10-31T09:45:08.593Z,4.22
2022-10-31T09:48:09.699Z,4.07
2022-10-31T09:50:48.894Z,3.78
2022-10-31T09:56:40.636Z,4.28
2022-10-31T09:59:28.199Z,4.15
2022-10-31T10:02:05.482Z,4.20
2022-10-31T10:04:44.801Z,5.45
2022-10-31T10:07:25.459Z,5.28
2022-10-31T10:09:55.693Z,4.85
2022-10-31T10:12:46.566Z,4.07
2022-10-31T10:15:41.976Z,3.80
2022-10-31T10:18:28.337Z,5.53
2022-10-31T10:21:22.135Z,4.45
2022-10-31T10:24:07.659Z,4.53
2022-10-31T10:26:53.307Z,5.05
2022-10-31T10:29:40.014Z,4.00
2022-10-31T10:32:24.670Z,3.65
2022-10-31T10:35:01.421Z,4.55
2022-10-31T10:37:37.819Z,4.82
2022-10-31T10:40:16.456Z,4.75
2022-10-31T10:43:10.330Z,4.47
2022-10-31T10:45:59.272Z,3.67
2022-10-31T10:48:45.358Z,4.55
2022-10-31T10:51:46.262Z,3.75
2022-10-31T10:54:56.213Z,5.15
2022-10-31T10:57:51.655Z,4.93
2022-10-31T11:00:24.312Z,5.72
2022-10-31T11:02:53.941Z,4.15
2022-10-31T11:05:35.871Z,5.13
2022-10-31T11:08:07.408Z,4.45
2022-10-31T11:10:49.265Z,4.50
2022-10-31T11:13:25.779Z,4.47
2022-10-31T11:16:01.990Z,4.30
2022-10-31T11:18:35.243Z,4.47
2022-10-31T11:21:08.390Z,5.20
2022-10-31T11:23:37.970Z,4.97
2022-10-31T11:26:18.183Z,3.80
2022-10-31T11:28:57.999Z,4.90
2022-10-31T11:31:29.099Z,4.07
2022-10-31T11:34:03.814Z,3.45
2022-10-31T11:36:39.506Z,4.75
2022-10-31T11:39:23.271Z,3.58
2022-10-31T11:41:55.491Z,3.90
2022-10-31T11:44:33.843Z,4.15
2022-10-31T11:47:14.019Z,4.55
2022-10-31T11:49:50.880Z,4.45
2022-10-31T11:52:27.055Z,4.03
2022-10-31T11:54:58.556Z,5.13
2022-10-31T11:57:34.658Z,4.68
2022-10-31T12:00:07.960Z,6.65
2022-10-31T12:02:36.725Z,4.47
2022-10-31T12:05:22.086Z,4.18
2022-10-31T12:08:01.899Z,3.88
2022-10-31T12:10:49.816Z,3.80
2022-10-31T12:13:35.429Z,4.72
2022-10-31T12:16:16.498Z,3.90
2022-10-31T12:19:03.198Z,4.68
2022-10-31T12:22:04.670Z,4.03
2022-10-31T12:25:08.581Z,4.93
2022-10-31T12:27:57.073Z,4.35
2022-10-31T12:30:40.918Z,5.40
2022-10-31T12:33:32.449Z,4.63
2022-10-31T12:36:41.271Z,4.45
2022-10-31T12:39:31.319Z,5.22
2022-10-31T12:42:13.469Z,5.45
2022-10-31T12:45:18.634Z,4.00
2022-10-31T12:48:21.539Z,3.60
2022-10-31T12:51:02.703Z,3.95
2022-10-31T12:53:48.823Z,4.65
2022-10-31T12:56:35.099Z,3.97
2022-10-31T12:59:17.811Z,3.70
2022-10-31T13:01:53.475Z,4.60
2022-10-31T13:04:37.236Z,3.83
2022-10-31T13:07:13.471Z,2.85
2022-10-31T13:09:54.046Z,4.50
2022-10-31T13:12:25.169Z,3.05
2022-10-31T13:15:01.853Z,3.38
2022-10-31T13:17:37.293Z,3.60
2022-10-31T13:20:24.746Z,3.08
2022-10-31T13:22:59.390Z,3.15
2022-10-31T13:25:34.567Z,3.03
2022-10-31T13:28:11.753Z,4.15
2022-10-31T13:30:44.465Z,3.88
2022-10-31T13:33:20.832Z,4.68
2022-10-31T13:36:03.628Z,8.00
2022-10-31T13:38:42.737Z,7.40
2022-10-31T13:41:32.281Z,4.75
2022-10-31T13:44:08.602Z,3.85
2022-10-31T13:49:39.727Z,3.33
2022-10-31T13:52:25.715Z,4.57
2022-10-31T13:54:57.965Z,4.40
2022-10-31T13:57:37.383Z,3.53
2022-10-31T14:00:25.131Z,11.65
2022-10-31T14:03:00.413Z,3.58
2022-10-31T14:05:33.194Z,3.80
2022-10-31T14:08:06.153Z,3.42
2022-10-31T14:10:39.331Z,4.05
2022-10-31T14:13:16.028Z,8.50
2022-10-31T14:16:15.175Z,2.63
2022-10-31T14:18:52.750Z,4.80
2022-10-31T14:21:37.584Z,3.28
2022-10-31T14:24:17.838Z,3.80
2022-10-31T14:26:58.153Z,3.00
2022-10-31T14:29:29.962Z,7.25
2022-10-31T14:32:08.605Z,6.13
2022-10-31T14:34:42.209Z,4.65
2022-10-31T14:37:57.164Z,3.00
2022-10-31T14:40:38.266Z,4.65
2022-10-31T14:43:30.140Z,5.05
2022-10-31T14:46:07.471Z,7.28
2022-10-31T14:49:00.618Z,3.63
2022-10-31T14:51:42.067Z,4.80
2022-10-31T14:54:18.749Z,3.92
2022-10-31T14:59:30.509Z,4.07
2022-10-31T15:02:04.073Z,4.72
2022-10-31T15:04:34.790Z,9.38
2022-10-31T15:07:14.330Z,9.55
2022-10-31T15:09:44.782Z,4.45
2022-10-31T15:12:29.431Z,2.95
2022-10-31T15:14:59.846Z,2.60
2022-10-31T15:17:29.408Z,2.90
2022-10-31T15:19:59.831Z,3.13
2022-10-31T15:22:34.436Z,3.70
2022-10-31T15:25:03.670Z,4.13
2022-10-31T15:27:34.435Z,6.40
2022-10-31T15:30:02.807Z,2.95
2022-10-31T15:32:32.026Z,3.58
2022-10-31T15:35:00.471Z,3.38
2022-10-31T15:37:30.931Z,3.33
2022-10-31T15:40:17.676Z,3.50
2022-10-31T15:42:52.116Z,4.05
2022-10-31T15:45:24.983Z,2.50
2022-10-31T15:48:00.231Z,2.78
2022-10-31T15:50:34.920Z,3.75
2022-10-31T15:53:19.428Z,3.05
2022-10-31T15:55:55.384Z,3.20
2022-10-31T15:58:25.280Z,3.10
2022-10-31T16:01:04.691Z,3.00
2022-10-31T16:03:36.237Z,3.35
2022-10-31T16:06:07.586Z,2.78
2022-10-31T16:08:39.292Z,2.75
2022-10-31T16:11:25.650Z,4.70
2022-10-31T16:14:04.110Z,3.85
2022-10-31T16:16:36.390Z,4.82
2022-10-31T16:19:08.103Z,3.67
2022-10-31T16:21:39.495Z,7.00
2022-10-31T16:24:26.860Z,3.58
2022-10-31T16:27:06.710Z,2.60
2022-10-31T16:29:41.570Z,2.60
2022-10-31T16:32:33.325Z,3.40
2022-10-31T16:35:28.756Z,4.63
2022-10-31T16:37:57.344Z,4.63
2022-10-31T16:40:27.165Z,6.10
2022-10-31T16:42:55.676Z,75.88
2022-10-31T16:45:26.883Z,11.15
2022-10-31T16:47:55.819Z,5.68
2022-10-31T16:50:26.799Z,5.50
2022-10-31T16:55:49.244Z,3.55
2022-10-31T16:58:24.762Z,5.78
2022-10-31T17:00:57.016Z,8.38
2022-10-31T17:03:25.917Z,5.50
2022-10-31T17:05:56.249Z,4.95
2022-10-31T17:08:34.081Z,5.82
2022-10-31T17:11:04.787Z,3.80
2022-10-31T17:13:35.877Z,3.75
2022-10-31T17:16:05.569Z,4.50
2022-10-31T17:18:34.256Z,4.60
2022-10-31T17:21:06.213Z,4.60
2022-10-31T17:23:37.315Z,4.88
2022-10-31T17:26:09.050Z,4.13
2022-10-31T17:28:37.559Z,4.38
2022-10-31T17:31:05.994Z,4.57
2022-10-31T17:33:34.403Z,6.60
2022-10-31T17:36:05.005Z,6.05
2022-10-31T17:38:33.373Z,3.97
2022-10-31T17:41:11.150Z,5.80
2022-10-31T17:43:40.395Z,7.57
2022-10-31T17:46:09.708Z,5.80
2022-10-31T17:48:39.323Z,8.98
2022-10-31T17:51:08.659Z,5.05
2022-10-31T17:53:37.501Z,9.57
2022-10-31T17:56:10.579Z,4.82
2022-10-31T17:58:40.028Z,8.23
2022-10-31T18:01:14.075Z,8.18
2022-10-31T18:03:43.268Z,7.45
2022-10-31T18:06:14.755Z,9.25
2022-10-31T18:08:43.178Z,5.82
2022-10-31T18:11:19.946Z,50.20
2022-10-31T18:13:48.805Z,12.68
2022-10-31T18:16:19.906Z,7.40
2022-10-31T18:18:53.401Z,8.38
2022-10-31T18:21:22.232Z,7.55
2022-10-31T18:23:55.505Z,5.95
2022-10-31T18:26:26.759Z,7.25
2022-10-31T18:28:55.867Z,7.20
2022-10-31T18:31:25.256Z,6.82
2022-10-31T18:33:55.423Z,8.85
2022-10-31T18:36:25.480Z,5.40
2022-10-31T18:38:54.788Z,6.30
2022-10-31T18:41:25.049Z,5.72
2022-10-31T18:43:56.353Z,5.72
2022-10-31T18:46:25.356Z,5.03
2022-10-31T18:48:53.732Z,6.38
2022-10-31T18:51:22.216Z,6.47
2022-10-31T18:53:58.056Z,7.47
2022-10-31T18:56:31.664Z,5.50
2022-10-31T18:59:02.354Z,5.30
2022-10-31T19:01:32.068Z,6.72
2022-10-31T19:04:00.539Z,7.35
2022-10-31T19:06:30.977Z,6.75
2022-10-31T19:09:02.999Z,6.22
2022-10-31T19:11:35.273Z,8.27
2022-10-31T19:14:04.508Z,7.85
2022-10-31T19:16:33.045Z,8.80
2022-10-31T19:19:01.652Z,6.35
2022-10-31T19:21:31.295Z,6.43
2022-10-31T19:24:01.189Z,7.32
2022-10-31T19:26:30.304Z,6.28
2022-10-31T19:29:00.276Z,7.10
2022-10-31T19:31:28.550Z,8.05
2022-10-31T19:33:56.950Z,7.80
2022-10-31T19:36:26.865Z,7.60
2022-10-31T19:38:55.340Z,7.30
2022-10-31T19:41:26.372Z,5.55
2022-10-31T19:43:56.151Z,7.15
2022-10-31T19:46:48.182Z,6.40
2022-10-31T19:49:15.680Z,6.18
2022-10-31T19:51:44.054Z,6.13
2022-10-31T19:54:13.995Z,6.20
2022-10-31T19:56:42.213Z,6.32
2022-10-31T19:59:10.709Z,6.07
2022-10-31T20:01:40.634Z,6.95
2022-10-31T20:04:09.143Z,5.93
2022-10-31T20:06:41.240Z,5.25
2022-10-31T20:09:13.888Z,8.07
2022-10-31T20:11:44.774Z,6.63
2022-10-31T20:14:16.263Z,6.15
2022-10-31T20:16:46.965Z,5.05
2022-10-31T20:19:16.732Z,7.07
2022-10-31T20:21:45.377Z,5.82
2022-10-31T20:24:14.310Z,7.97
2022-10-31T20:26:43.331Z,6.13
2022-10-31T20:29:16.192Z,8.02
2022-10-31T20:31:48.430Z,9.25
2022-10-31T20:34:17.324Z,11.80
2022-10-31T20:36:46.003Z,11.50
2022-10-31T20:39:14.694Z,8.15
2022-10-31T20:41:43.258Z,6.82
2022-10-31T20:44:11.612Z,5.60
2022-10-31T20:46:40.734Z,6.05
2022-10-31T20:49:11.457Z,5.95
2022-10-31T20:51:40.704Z,6.95
2022-10-31T20:54:11.572Z,5.15
2022-10-31T20:56:40.031Z,5.85
2022-10-31T20:59:08.725Z,6.07
2022-10-31T21:01:38.682Z,5.60
2022-10-31T21:04:09.906Z,7.10
2022-10-31T21:06:42.961Z,5.72
2022-10-31T21:09:13.596Z,5.35
2022-10-31T21:11:42.185Z,6.20
2022-10-31T21:14:13.610Z,5.45
2022-10-31T21:16:41.891Z,5.88
2022-10-31T21:19:10.359Z,5.82
2022-10-31T21:21:40.349Z,5.70
2022-10-31T21:24:13.636Z,6.05
2022-10-31T21:26:45.406Z,4.97
2022-10-31T21:29:16.171Z,5.80
2022-10-31T21:31:45.632Z,4.43
2022-10-31T21:34:14.562Z,4.65
2022-10-31T21:36:44.447Z,5.45
2022-10-31T21:39:12.937Z,4.45
2022-10-31T21:41:41.618Z,3.75
2022-10-31T21:44:10.152Z,4.70
2022-10-31T21:46:40.433Z,4.30
2022-10-31T21:49:08.806Z,4.15
2022-10-31T21:51:38.098Z,4.00
2022-10-31T21:54:27.483Z,2.92
2022-10-31T21:56:56.629Z,3.45
2022-10-31T21:59:25.490Z,3.40
2022-10-31T22:01:56.018Z,3.40
2022-10-31T22:04:24.361Z,3.80
2022-10-31T22:06:52.629Z,3.38
2022-10-31T22:09:23.605Z,3.67
2022-10-31T22:11:52.725Z,3.85
2022-10-31T22:14:20.992Z,3.17
2022-10-31T22:16:49.275Z,3.20
2022-10-31T22:19:23.692Z,3.45
2022-10-31T22:21:51.797Z,5.68
2022-10-31T22:24:21.749Z,4.18
2022-10-31T22:26:49.908Z,4.40
2022-10-31T22:29:20.728Z,3.80
2022-10-31T22:31:55.164Z,4.68
2022-10-31T22:34:26.851Z,3.85
2022-10-31T22:36:56.978Z,4.93
2022-10-31T22:39:26.540Z,5.43
2022-10-31T22:41:54.559Z,5.13
2022-10-31T22:44:22.565Z,4.80
2022-10-31T22:46:50.673Z,5.03
2022-10-31T22:49:18.721Z,5.22
2022-10-31T22:51:46.867Z,6.05
2022-10-31T22:54:17.404Z,5.97
2022-10-31T22:56:47.148Z,6.88
2022-10-31T22:59:17.499Z,6.85
2022-10-31T23:01:46.612Z,6.80
2022-10-31T23:04:15.909Z,5.63
2022-10-31T23:06:44.653Z,7.15
2022-10-31T23:09:17.276Z,8.00
2022-10-31T23:11:47.187Z,8.95
2022-10-31T23:14:19.434Z,8.32
2022-10-31T23:16:50.480Z,6.47
2022-10-31T23:19:21.971Z,6.68
2022-10-31T23:21:56.064Z,8.48
2022-10-31T23:24:28.267Z,7.28
2022-10-31T23:27:08.350Z,7.75
2022-10-31T23:29:43.849Z,7.95
2022-10-31T23:32:18.717Z,8.60
2022-10-31T23:34:48.337Z,7.95
2022-10-31T23:37:17.978Z,8.55
2022-10-31T23:39:46.188Z,8.02
2022-10-31T23:42:16.510Z,7.70
2022-10-31T23:44:44.754Z,7.10
2022-10-31T23:47:14.102Z,6.35
2022-10-31T23:49:42.270Z,7.28
2022-10-31T23:52:10.787Z,8.15
2022-10-31T23:54:39.821Z,8.20
2022-10-31T23:57:07.938Z,7.47
2022-10-31T23:59:37.712Z,7.22
